createdAt,value
2019-03-30T00:01:11.101Z,80.90
2019-03-30T00:04:16.015Z,80.60
2019-03-30T00:07:20.916Z,81.10
2019-03-30T00:10:25.823Z,79.90
2019-03-30T00:13:30.787Z,79.80
2019-03-30T00:16:35.692Z,80.10
2019-03-30T00:19:41.479Z,79.70
2019-03-30T00:22:46.404Z,80.20
2019-03-30T00:25:51.326Z,80.00
2019-03-30T00:28:56.290Z,79.60
2019-03-30T00:32:01.137Z,80.00
2019-03-30T00:35:06.099Z,80.90
2019-03-30T00:38:11.012Z,80.80
2019-03-30T00:41:16.012Z,81.30
2019-03-30T00:44:20.926Z,81.00
2019-03-30T00:47:25.895Z,80.30
2019-03-30T00:50:30.885Z,80.40
2019-03-30T00:53:35.849Z,80.30
2019-03-30T00:56:40.725Z,80.70
2019-03-30T00:59:45.706Z,80.40
2019-03-30T01:02:50.614Z,80.50
2019-03-30T01:05:58.183Z,80.10
2019-03-30T01:09:02.068Z,81.20
2019-03-30T01:12:06.995Z,81.40
2019-03-30T01:15:12.046Z,80.90
2019-03-30T01:18:16.971Z,80.80
2019-03-30T01:21:21.856Z,81.50
2019-03-30T01:24:26.696Z,81.90
2019-03-30T01:27:31.538Z,81.50
2019-03-30T01:30:36.436Z,81.50
2019-03-30T01:33:41.327Z,81.70
2019-03-30T01:36:46.244Z,81.00
2019-03-30T01:39:51.139Z,81.20
2019-03-30T01:42:55.984Z,81.10
2019-03-30T01:46:00.970Z,81.70
2019-03-30T01:49:05.896Z,81.30
2019-03-30T01:52:10.823Z,80.70
2019-03-30T01:55:15.754Z,80.90
2019-03-30T01:58:20.660Z,80.60
2019-03-30T02:01:25.585Z,80.50
2019-03-30T02:04:30.413Z,80.40
2019-03-30T02:07:35.272Z,81.20
2019-03-30T02:10:42.206Z,81.00
2019-03-30T02:13:47.160Z,80.90
2019-03-30T02:16:52.096Z,81.00
2019-03-30T02:19:57.011Z,81.70
2019-03-30T02:23:01.927Z,81.90
2019-03-30T02:26:06.920Z,81.50
2019-03-30T02:29:11.796Z,82.30
2019-03-30T02:32:16.728Z,81.50
2019-03-30T02:35:21.617Z,82.20
2019-03-30T02:38:26.499Z,82.00
2019-03-30T02:41:31.397Z,81.50
2019-03-30T02:44:36.316Z,81.30
2019-03-30T02:47:41.246Z,81.20
2019-03-30T02:50:50.168Z,81.20
2019-03-30T02:53:53.067Z,81.80
2019-03-30T02:56:58.025Z,80.80
2019-03-30T03:00:04.468Z,80.00
2019-03-30T03:03:09.418Z,80.60
2019-03-30T03:06:14.322Z,81.70
2019-03-30T03:09:19.243Z,81.00
2019-03-30T03:12:24.145Z,80.50
2019-03-30T03:15:29.070Z,81.20
2019-03-30T03:18:34.004Z,80.50
2019-03-30T03:21:38.930Z,80.40
2019-03-30T03:24:43.867Z,81.10
2019-03-30T03:27:48.778Z,79.80
2019-03-30T03:30:53.909Z,80.60
2019-03-30T03:33:59.018Z,80.80
2019-03-30T03:37:03.969Z,80.70
2019-03-30T03:40:09.304Z,80.80
2019-03-30T03:43:14.219Z,80.50
2019-03-30T03:46:19.130Z,79.80
2019-03-30T03:49:24.067Z,80.00
2019-03-30T03:52:28.969Z,79.90
2019-03-30T03:55:35.312Z,79.70
2019-03-30T03:58:41.580Z,80.60
2019-03-30T04:01:48.309Z,80.50
2019-03-30T04:04:54.977Z,80.90
2019-03-30T04:08:01.861Z,80.60
2019-03-30T04:11:07.403Z,80.50
2019-03-30T04:14:14.084Z,80.10
2019-03-30T04:17:19.031Z,79.30
2019-03-30T04:20:27.280Z,79.60
2019-03-30T04:23:32.206Z,80.00
2019-03-30T04:26:37.109Z,80.00
2019-03-30T04:29:42.028Z,79.70
2019-03-30T04:32:46.903Z,79.70
2019-03-30T04:35:51.838Z,80.70
2019-03-30T04:38:56.724Z,80.70
2019-03-30T04:42:01.675Z,79.60
2019-03-30T04:45:06.906Z,80.30
2019-03-30T04:48:11.816Z,80.60
2019-03-30T04:51:16.737Z,82.20
2019-03-30T04:54:21.679Z,82.50
2019-03-30T04:57:26.600Z,83.70
2019-03-30T05:00:31.532Z,82.80
2019-03-30T05:03:36.358Z,83.60
2019-03-30T05:06:41.294Z,83.00
2019-03-30T05:09:46.211Z,82.70
2019-03-30T05:12:51.169Z,83.00
2019-03-30T05:15:56.079Z,83.90
2019-03-30T05:19:01.034Z,84.60
2019-03-30T05:22:12.783Z,84.60
2019-03-30T05:25:12.786Z,84.70
2019-03-30T05:28:17.754Z,84.90
2019-03-30T05:31:22.675Z,85.90
2019-03-30T05:34:27.602Z,86.50
2019-03-30T05:37:32.518Z,86.00
2019-03-30T05:40:38.972Z,86.90
2019-03-30T05:43:43.841Z,87.70
2019-03-30T05:46:48.753Z,88.00
2019-03-30T05:49:53.611Z,88.30
2019-03-30T05:52:58.466Z,88.20
2019-03-30T05:56:03.409Z,88.40
2019-03-30T05:59:08.323Z,88.60
2019-03-30T06:02:13.482Z,88.40
2019-03-30T06:05:18.402Z,88.60
2019-03-30T06:08:23.311Z,88.40
2019-03-30T06:11:28.146Z,88.90
2019-03-30T06:14:33.099Z,88.70
2019-03-30T06:17:38.003Z,88.80
2019-03-30T06:20:42.911Z,88.40
2019-03-30T06:23:48.787Z,88.50
2019-03-30T06:26:53.835Z,88.40
2019-03-30T06:30:22.733Z,89.00
2019-03-30T06:33:27.647Z,89.10
2019-03-30T06:36:32.515Z,89.40
2019-03-30T06:39:37.423Z,89.10
2019-03-30T06:42:42.443Z,89.30
2019-03-30T06:45:47.383Z,89.80
2019-03-30T06:48:52.217Z,90.00
2019-03-30T06:51:57.066Z,90.00
2019-03-30T06:55:02.001Z,89.00
2019-03-30T06:58:06.868Z,90.10
2019-03-30T07:01:12.362Z,90.00
2019-03-30T07:04:17.801Z,90.20
2019-03-30T07:07:24.175Z,90.30
2019-03-30T07:10:29.223Z,89.60
2019-03-30T07:13:37.024Z,90.00
2019-03-30T07:16:43.055Z,89.70
2019-03-30T07:19:50.834Z,89.00
2019-03-30T07:23:10.765Z,89.00
2019-03-30T07:26:03.064Z,89.60
2019-03-30T07:29:07.944Z,89.50
2019-03-30T07:32:12.825Z,89.30
2019-03-30T07:35:17.779Z,89.00
2019-03-30T07:38:22.655Z,88.50
2019-03-30T07:41:27.603Z,87.10
2019-03-30T07:44:32.485Z,85.80
2019-03-30T07:47:37.415Z,85.90
2019-03-30T07:50:42.273Z,83.80
2019-03-30T07:53:47.318Z,84.00
2019-03-30T07:57:04.246Z,83.00
2019-03-30T07:59:59.049Z,83.20
2019-03-30T08:03:03.955Z,82.40
2019-03-30T08:06:08.918Z,83.00
2019-03-30T08:09:13.855Z,81.50
2019-03-30T08:12:18.816Z,80.90
2019-03-30T08:15:23.663Z,81.10
2019-03-30T08:18:28.535Z,79.80
2019-03-30T08:21:33.498Z,80.30
2019-03-30T08:24:38.532Z,78.60
2019-03-30T08:27:43.485Z,77.20
2019-03-30T08:30:48.381Z,76.70
2019-03-30T08:34:02.634Z,77.00
2019-03-30T08:37:07.895Z,75.20
2019-03-30T08:40:13.320Z,74.30
2019-03-30T08:43:19.494Z,73.70
2019-03-30T08:46:24.551Z,72.60
2019-03-30T08:49:53.231Z,71.70
2019-03-30T08:52:58.131Z,72.10
2019-03-30T08:56:03.396Z,70.90
2019-03-30T08:59:08.348Z,70.60
2019-03-30T09:02:13.315Z,70.10
2019-03-30T09:05:18.140Z,70.10
2019-03-30T09:08:23.155Z,68.40
2019-03-30T09:11:28.091Z,67.00
2019-03-30T09:14:34.847Z,67.10
2019-03-30T09:17:39.763Z,67.20
2019-03-30T09:20:44.690Z,66.80
2019-03-30T09:23:50.271Z,66.30
2019-03-30T09:26:55.226Z,65.30
2019-03-30T09:30:00.371Z,64.80
2019-03-30T09:33:05.461Z,64.20
2019-03-30T09:36:10.342Z,63.30
2019-03-30T09:39:15.679Z,64.00
2019-03-30T09:42:20.579Z,62.80
2019-03-30T09:45:25.537Z,62.60
2019-03-30T09:48:30.438Z,62.10
2019-03-30T09:51:35.419Z,59.50
2019-03-30T09:54:40.233Z,59.50
2019-03-30T09:57:45.192Z,59.50
2019-03-30T10:00:50.188Z,58.30
2019-03-30T10:03:55.110Z,57.40
2019-03-30T10:07:00.937Z,57.10
2019-03-30T10:10:06.745Z,56.30
2019-03-30T10:13:11.637Z,57.90
2019-03-30T10:16:16.481Z,55.80
2019-03-30T10:19:21.465Z,55.40
2019-03-30T10:22:26.383Z,53.10
2019-03-30T10:25:31.180Z,53.40
2019-03-30T10:28:36.127Z,53.60
2019-03-30T10:31:41.071Z,51.50
2019-03-30T10:34:45.998Z,51.40
2019-03-30T10:37:50.886Z,51.90
2019-03-30T10:40:55.805Z,50.70
2019-03-30T10:44:00.696Z,50.80
2019-03-30T10:47:05.622Z,50.20
2019-03-30T10:50:10.626Z,49.90
2019-03-30T10:53:15.571Z,47.80
2019-03-30T10:56:20.367Z,49.10
2019-03-30T10:59:25.208Z,47.40
2019-03-30T11:02:30.151Z,48.50
2019-03-30T11:05:35.115Z,47.40
2019-03-30T11:08:40.000Z,48.40
2019-03-30T11:11:44.943Z,47.40
2019-03-30T11:14:49.852Z,45.60
2019-03-30T11:17:54.710Z,45.20
2019-03-30T11:20:59.519Z,45.20
2019-03-30T11:24:06.677Z,44.30
2019-03-30T11:27:10.928Z,44.90
2019-03-30T11:30:15.774Z,43.50
2019-03-30T11:33:20.631Z,44.10
2019-03-30T11:36:25.494Z,43.70
2019-03-30T11:39:30.370Z,41.90
2019-03-30T11:42:35.303Z,42.70
2019-03-30T11:45:40.441Z,42.30
2019-03-30T11:48:45.394Z,42.80
2019-03-30T11:51:50.315Z,41.90
2019-03-30T11:54:55.195Z,41.30
2019-03-30T11:58:00.002Z,42.90
2019-03-30T12:01:08.266Z,42.40
2019-03-30T12:04:13.195Z,41.10
2019-03-30T12:07:18.140Z,39.10
2019-03-30T12:10:23.020Z,39.50
2019-03-30T12:13:27.979Z,39.30
2019-03-30T12:16:32.859Z,40.00
2019-03-30T12:19:37.775Z,39.00
2019-03-30T12:22:42.706Z,39.20
2019-03-30T12:25:47.651Z,38.80
2019-03-30T12:28:52.627Z,39.10
2019-03-30T12:31:57.508Z,38.80
2019-03-30T12:35:02.439Z,40.00
2019-03-30T12:38:07.358Z,40.50
2019-03-30T12:41:12.275Z,40.90
2019-03-30T12:44:17.431Z,41.10
2019-03-30T12:47:22.416Z,41.20
2019-03-30T12:50:27.523Z,41.40
2019-03-30T12:53:32.384Z,41.10
2019-03-30T12:56:37.659Z,41.50
2019-03-30T12:59:42.550Z,41.30
2019-03-30T13:02:47.563Z,41.30
2019-03-30T13:05:52.526Z,41.10
2019-03-30T13:08:57.451Z,41.10
2019-03-30T13:12:02.306Z,40.90
2019-03-30T13:15:08.523Z,40.60
2019-03-30T13:18:13.355Z,40.50
2019-03-30T13:21:18.207Z,40.60
2019-03-30T13:24:23.186Z,40.20
2019-03-30T13:27:29.807Z,40.10
2019-03-30T13:30:34.762Z,39.80
2019-03-30T13:33:39.691Z,39.70
2019-03-30T13:36:44.659Z,39.50
2019-03-30T13:39:49.572Z,39.30
2019-03-30T13:42:54.483Z,39.10
2019-03-30T13:45:59.546Z,39.60
2019-03-30T13:49:04.743Z,39.00
2019-03-30T13:52:09.534Z,38.80
2019-03-30T13:55:15.035Z,38.50
2019-03-30T13:58:19.956Z,38.50
2019-03-30T14:01:27.659Z,38.80
2019-03-30T14:04:32.608Z,38.30
2019-03-30T14:07:37.560Z,38.50
2019-03-30T14:10:42.479Z,38.10
2019-03-30T14:13:47.374Z,37.90
2019-03-30T14:16:52.285Z,37.60
2019-03-30T14:19:57.251Z,37.50
2019-03-30T14:23:02.366Z,37.60
2019-03-30T14:26:07.256Z,37.10
2019-03-30T14:29:12.243Z,36.60
2019-03-30T14:32:17.145Z,36.50
2019-03-30T14:35:22.194Z,36.40
2019-03-30T14:38:27.241Z,36.20
2019-03-30T14:41:32.151Z,36.70
2019-03-30T14:44:37.071Z,36.20
2019-03-30T14:47:41.962Z,36.20
2019-03-30T14:50:47.237Z,36.40
2019-03-30T14:53:52.168Z,35.80
2019-03-30T14:56:57.087Z,36.20
2019-03-30T15:00:02.031Z,36.70
2019-03-30T15:03:07.093Z,35.80
2019-03-30T15:06:12.045Z,35.70
2019-03-30T15:09:17.027Z,35.90
2019-03-30T15:12:21.891Z,36.00
2019-03-30T15:15:26.894Z,35.90
2019-03-30T15:18:31.908Z,36.40
2019-03-30T15:21:36.844Z,36.20
2019-03-30T15:24:41.792Z,36.00
2019-03-30T15:27:48.505Z,36.50
2019-03-30T15:30:53.520Z,36.40
2019-03-30T15:33:58.416Z,36.90
2019-03-30T15:37:03.349Z,37.50
2019-03-30T15:40:10.820Z,37.20
2019-03-30T15:43:15.759Z,37.50
2019-03-30T15:46:20.662Z,37.40
2019-03-30T15:49:27.860Z,37.60
2019-03-30T15:52:32.824Z,37.60
2019-03-30T15:55:37.935Z,37.90
2019-03-30T15:58:42.847Z,38.20
2019-03-30T16:01:47.803Z,38.50
2019-03-30T16:04:52.612Z,38.50
2019-03-30T16:07:57.474Z,38.60
2019-03-30T16:11:02.445Z,38.80
2019-03-30T16:14:07.376Z,38.70
2019-03-30T16:17:14.815Z,38.70
2019-03-30T16:20:18.919Z,39.20
2019-03-30T16:23:23.773Z,39.40
2019-03-30T16:26:41.351Z,39.40
2019-03-30T16:29:35.268Z,39.10
2019-03-30T16:32:40.258Z,39.70
2019-03-30T16:35:45.179Z,40.00
2019-03-30T16:38:50.147Z,40.30
2019-03-30T16:41:55.064Z,40.90
2019-03-30T16:44:59.977Z,41.30
2019-03-30T16:48:04.978Z,41.60
2019-03-30T16:51:09.900Z,42.10
2019-03-30T16:54:14.715Z,42.20
2019-03-30T16:57:19.863Z,42.50
2019-03-30T17:00:24.767Z,42.80
2019-03-30T17:03:29.679Z,43.30
2019-03-30T17:06:34.600Z,43.70
2019-03-30T17:09:39.674Z,44.10
2019-03-30T17:12:44.704Z,44.60
2019-03-30T17:15:49.834Z,44.60
2019-03-30T17:18:54.711Z,45.00
2019-03-30T17:21:59.653Z,45.40
2019-03-30T17:25:06.092Z,46.10
2019-03-30T17:28:11.052Z,46.30
2019-03-30T17:31:15.960Z,46.40
2019-03-30T17:34:20.956Z,47.00
2019-03-30T17:37:25.884Z,47.10
2019-03-30T17:40:30.742Z,47.50
2019-03-30T17:43:35.722Z,48.10
2019-03-30T17:46:40.639Z,49.50
2019-03-30T17:49:45.598Z,53.50
2019-03-30T17:52:50.556Z,53.00
2019-03-30T17:55:55.396Z,52.70
2019-03-30T17:59:00.251Z,53.40
2019-03-30T18:02:05.225Z,53.30
2019-03-30T18:05:10.402Z,53.50
2019-03-30T18:08:15.300Z,53.40
2019-03-30T18:11:20.180Z,53.80
2019-03-30T18:14:25.122Z,53.80
2019-03-30T18:17:30.047Z,53.90
2019-03-30T18:20:34.997Z,54.10
2019-03-30T18:23:39.935Z,54.40
2019-03-30T18:26:44.983Z,54.20
2019-03-30T18:29:49.939Z,54.20
2019-03-30T18:32:56.260Z,54.30
2019-03-30T18:36:01.471Z,54.40
2019-03-30T18:39:09.901Z,54.30
2019-03-30T18:42:14.335Z,54.40
2019-03-30T18:45:28.680Z,54.60
2019-03-30T18:48:33.606Z,55.10
2019-03-30T18:51:41.354Z,55.30
2019-03-30T18:54:46.786Z,55.30
2019-03-30T18:57:51.922Z,55.30
2019-03-30T19:00:56.778Z,55.50
2019-03-30T19:04:03.667Z,55.80
2019-03-30T19:07:08.608Z,55.80
2019-03-30T19:10:13.546Z,56.00
2019-03-30T19:13:18.495Z,56.10
2019-03-30T19:16:24.788Z,56.20
2019-03-30T19:19:29.735Z,56.30
2019-03-30T19:22:34.666Z,56.50
2019-03-30T19:25:39.589Z,56.60
2019-03-30T19:28:55.573Z,56.90
2019-03-30T19:31:51.024Z,57.00
2019-03-30T19:34:55.944Z,57.20
2019-03-30T19:38:00.967Z,57.50
2019-03-30T19:41:06.036Z,57.60
2019-03-30T19:44:10.968Z,57.50
2019-03-30T19:47:15.931Z,58.00
2019-03-30T19:50:20.876Z,58.80
2019-03-30T19:53:25.806Z,59.10
2019-03-30T19:56:30.767Z,59.30
2019-03-30T19:59:35.679Z,59.40
2019-03-30T20:02:40.621Z,59.50
2019-03-30T20:05:45.549Z,59.60
2019-03-30T20:08:50.419Z,59.90
2019-03-30T20:11:55.333Z,60.00
2019-03-30T20:15:00.430Z,59.90
2019-03-30T20:18:05.475Z,60.30
2019-03-30T20:21:10.473Z,60.40
2019-03-30T20:24:15.313Z,60.40
2019-03-30T20:27:20.291Z,60.90
2019-03-30T20:30:27.371Z,60.70
2019-03-30T20:33:32.231Z,60.90
2019-03-30T20:36:37.098Z,60.60
2019-03-30T20:39:42.021Z,60.80
2019-03-30T20:42:46.922Z,61.00
2019-03-30T20:45:51.865Z,61.30
2019-03-30T20:48:58.553Z,61.20
2019-03-30T20:52:05.282Z,61.20
2019-03-30T20:55:10.280Z,61.40
2019-03-30T20:58:20.554Z,61.50
2019-03-30T21:01:25.685Z,61.80
2019-03-30T21:04:30.640Z,61.90
2019-03-30T21:07:35.562Z,62.20
2019-03-30T21:10:40.559Z,62.50
2019-03-30T21:13:45.494Z,62.60
2019-03-30T21:16:50.368Z,62.60
2019-03-30T21:19:55.335Z,62.70
2019-03-30T21:23:00.406Z,62.90
2019-03-30T21:26:05.599Z,63.00
2019-03-30T21:29:10.459Z,63.00
2019-03-30T21:32:15.309Z,63.20
2019-03-30T21:35:20.238Z,63.20
2019-03-30T21:38:25.241Z,63.40
2019-03-30T21:41:30.181Z,63.40
2019-03-30T21:44:35.086Z,63.40
2019-03-30T21:47:40.021Z,63.40
2019-03-30T21:50:46.297Z,63.70
2019-03-30T21:53:51.225Z,63.70
2019-03-30T21:56:56.149Z,63.90
2019-03-30T22:00:09.717Z,63.80
2019-03-30T22:03:07.756Z,64.00
2019-03-30T22:06:12.700Z,64.10
2019-03-30T22:09:17.527Z,64.10
2019-03-30T22:12:22.460Z,64.00
2019-03-30T22:15:28.953Z,64.10
2019-03-30T22:18:33.817Z,64.10
2019-03-30T22:21:38.773Z,64.20
2019-03-30T22:24:43.698Z,64.30
2019-03-30T22:27:48.604Z,64.50
2019-03-30T22:30:53.696Z,64.50
2019-03-30T22:33:58.755Z,64.70
2019-03-30T22:37:04.904Z,64.60
2019-03-30T22:40:10.178Z,64.80
2019-03-30T22:43:15.112Z,64.70
2019-03-30T22:46:20.015Z,64.60
2019-03-30T22:49:24.957Z,64.60
2019-03-30T22:52:29.917Z,64.60
2019-03-30T22:55:34.835Z,64.60
2019-03-30T22:58:39.668Z,64.70
2019-03-30T23:01:44.632Z,64.60
2019-03-30T23:04:49.789Z,64.60
2019-03-30T23:07:54.720Z,64.60
2019-03-30T23:10:59.482Z,64.60
2019-03-30T23:14:04.445Z,65.50
2019-03-30T23:17:09.406Z,64.50
2019-03-30T23:20:15.894Z,64.50
2019-03-30T23:23:20.913Z,64.60
2019-03-30T23:26:25.913Z,64.50
2019-03-30T23:29:30.797Z,64.50
2019-03-30T23:32:35.791Z,64.60
2019-03-30T23:35:42.382Z,64.60
2019-03-30T23:39:06.955Z,64.70
2019-03-30T23:42:11.951Z,64.60
2019-03-30T23:45:16.927Z,64.90
2019-03-30T23:48:22.747Z,64.90
2019-03-30T23:51:27.707Z,65.00
2019-03-30T23:54:33.141Z,65.00
2019-03-30T23:57:38.145Z,65.10
